createdAt,value
2022-12-03T00:00:16.806Z,102537.56
2022-12-03T00:00:49.174Z,102529.50
2022-12-03T00:01:20.854Z,102539.72
2022-12-03T00:01:52.666Z,102540.00
2022-12-03T00:02:24.689Z,102531.66
2022-12-03T00:02:56.816Z,102531.66
2022-12-03T00:03:29.755Z,102535.69
2022-12-03T00:04:02.073Z,102527.38
2022-12-03T00:04:34.146Z,102535.97
2022-12-03T00:05:06.338Z,102540.78
2022-12-03T00:05:41.765Z,102534.63
2022-12-03T00:06:16.581Z,102538.09
2022-12-03T00:06:48.373Z,102532.72
2022-12-03T00:07:20.192Z,102527.09
2022-12-03T00:07:52.271Z,102533.28
2022-12-03T00:08:24.423Z,102534.06
2022-12-03T00:08:56.450Z,102531.91
2022-12-03T00:09:28.211Z,102531.13
2022-12-03T00:10:02.524Z,102526.81
2022-12-03T00:10:34.421Z,102536.50
2022-12-03T00:11:06.339Z,102535.97
2022-12-03T00:11:38.358Z,102530.59
2022-12-03T00:12:10.023Z,102533.81
2022-12-03T00:12:41.849Z,102534.34
2022-12-03T00:13:14.720Z,102533.00
2022-12-03T00:13:46.798Z,102529.50
2022-12-03T00:14:18.709Z,102526.00
2022-12-03T00:14:50.581Z,102525.22
2022-12-03T00:15:22.372Z,102528.16
2022-12-03T00:15:54.457Z,102530.59
2022-12-03T00:16:26.698Z,102525.22
2022-12-03T00:16:58.506Z,102527.38
2022-12-03T00:17:30.309Z,102529.78
2022-12-03T00:18:02.065Z,102534.88
2022-12-03T00:18:34.063Z,102526.00
2022-12-03T00:19:07.815Z,102533.28
2022-12-03T00:19:39.698Z,102524.13
2022-12-03T00:20:19.048Z,102523.88
2022-12-03T00:20:50.793Z,102524.94
2022-12-03T00:21:24.577Z,102531.91
2022-12-03T00:21:56.641Z,102530.59
2022-12-03T00:22:28.659Z,102522.78
2022-12-03T00:23:00.609Z,102530.84
2022-12-03T00:23:34.893Z,102516.06
2022-12-03T00:24:10.420Z,102533.00
2022-12-03T00:24:42.008Z,102525.22
2022-12-03T00:25:13.998Z,102530.03
2022-12-03T00:25:45.692Z,102520.38
2022-12-03T00:26:19.482Z,102513.13
2022-12-03T00:26:51.469Z,102531.13
2022-12-03T00:27:23.475Z,102516.59
2022-12-03T00:27:55.138Z,102524.41
2022-12-03T00:28:27.151Z,102530.59
2022-12-03T00:28:59.288Z,102518.75
2022-12-03T00:29:30.913Z,102517.69
2022-12-03T00:30:02.739Z,102522.78
2022-12-03T00:30:34.639Z,102519.84
2022-12-03T00:31:06.623Z,102527.38
2022-12-03T00:31:38.540Z,102526.56
2022-12-03T00:32:10.528Z,102527.38
2022-12-03T00:32:42.485Z,102522.78
2022-12-03T00:33:32.955Z,102523.31
2022-12-03T00:34:04.951Z,102522.78
2022-12-03T00:34:36.838Z,102515.53
2022-12-03T00:35:09.145Z,102518.47
2022-12-03T00:35:41.267Z,102512.84
2022-12-03T00:36:13.036Z,102517.41
2022-12-03T00:36:44.965Z,102512.03
2022-12-03T00:37:16.956Z,102517.69
2022-12-03T00:37:48.816Z,102504.78
2022-12-03T00:38:20.685Z,102505.84
2022-12-03T00:38:52.444Z,102513.66
2022-12-03T00:39:24.545Z,102512.84
2022-12-03T00:39:56.371Z,102513.09
2022-12-03T00:40:28.351Z,102513.09
2022-12-03T00:41:00.153Z,102502.91
2022-12-03T00:41:31.940Z,102505.59
2022-12-03T00:42:03.995Z,102508.53
2022-12-03T00:42:35.870Z,102508.53
2022-12-03T00:43:07.905Z,102500.75
2022-12-03T00:43:39.623Z,102508.53
2022-12-03T00:44:12.281Z,102506.38
2022-12-03T00:44:44.264Z,102503.44
2022-12-03T00:45:16.025Z,102509.34
2022-12-03T00:45:47.793Z,102506.38
2022-12-03T00:46:21.592Z,102509.63
2022-12-03T00:46:54.021Z,102512.03
2022-12-03T00:47:25.961Z,102502.09
2022-12-03T00:47:57.857Z,102501.28
2022-12-03T00:48:29.695Z,102505.59
2022-12-03T00:49:01.609Z,102507.72
2022-12-03T00:49:33.482Z,102495.91
2022-12-03T00:50:06.546Z,102506.91
2022-12-03T00:50:38.632Z,102497.78
2022-12-03T00:51:10.520Z,102507.47
2022-12-03T00:51:42.680Z,102492.16
2022-12-03T00:52:14.430Z,102499.94
2022-12-03T00:52:48.280Z,102505.84
2022-12-03T00:53:20.139Z,102502.34
2022-12-03T00:53:51.935Z,102500.47
2022-12-03T00:54:29.986Z,102508.53
2022-12-03T00:55:04.349Z,102498.06
2022-12-03T00:55:36.243Z,102504.22
2022-12-03T00:56:08.783Z,102502.34
2022-12-03T00:56:40.514Z,102502.34
2022-12-03T00:57:12.239Z,102504.22
2022-12-03T00:57:47.507Z,102502.63
2022-12-03T00:58:19.652Z,102498.31
2022-12-03T00:58:51.729Z,102500.75
2022-12-03T00:59:23.430Z,102500.47
2022-12-03T00:59:55.289Z,102501.53
2022-12-03T01:00:27.105Z,102491.88
2022-12-03T01:00:59.061Z,102504.22
2022-12-03T01:01:31.047Z,102496.72
2022-12-03T01:02:03.026Z,102486.22
2022-12-03T01:02:35.642Z,102497.53
2022-12-03T01:03:07.539Z,102505.84
2022-12-03T01:03:39.586Z,102491.34
2022-12-03T01:04:11.475Z,102502.34
2022-12-03T01:04:43.420Z,102486.78
2022-12-03T01:05:15.198Z,102498.06
2022-12-03T01:05:47.249Z,102499.66
2022-12-03T01:06:19.023Z,102501.28
2022-12-03T01:06:50.960Z,102500.75
2022-12-03T01:07:23.028Z,102488.66
2022-12-03T01:07:55.013Z,102484.34
2022-12-03T01:08:26.907Z,102487.03
2022-12-03T01:08:58.764Z,102493.75
2022-12-03T01:09:30.559Z,102495.91
2022-12-03T01:10:04.273Z,102496.41
2022-12-03T01:10:38.584Z,102494.00
2022-12-03T01:11:30.445Z,102490.78
2022-12-03T01:12:02.211Z,102496.72
2022-12-03T01:12:34.152Z,102484.34
2022-12-03T01:13:05.850Z,102499.38
2022-12-03T01:13:37.635Z,102490.53
2022-12-03T01:14:15.516Z,102487.84
2022-12-03T01:14:47.741Z,102483.81
2022-12-03T01:15:19.926Z,102494.00
2022-12-03T01:15:51.464Z,102491.06
2022-12-03T01:16:22.920Z,102487.03
2022-12-03T01:16:54.456Z,102492.41
2022-12-03T01:17:25.866Z,102487.84
2022-12-03T01:17:57.442Z,102487.84
2022-12-03T01:18:28.795Z,102478.16
2022-12-03T01:19:00.153Z,102489.72
2022-12-03T01:19:31.708Z,102487.84
2022-12-03T01:20:08.755Z,102481.94
2022-12-03T01:20:58.874Z,102482.72
2022-12-03T01:21:30.771Z,102483.53
2022-12-03T01:22:02.473Z,102488.91
2022-12-03T01:22:33.873Z,102483.81
2022-12-03T01:23:05.318Z,102483.28
2022-12-03T01:23:36.871Z,102479.78
2022-12-03T01:24:08.465Z,102484.09
2022-12-03T01:24:39.836Z,102484.88
2022-12-03T01:25:11.526Z,102479.50
2022-12-03T01:25:42.842Z,102483.28
2022-12-03T01:26:14.295Z,102482.19
2022-12-03T01:26:45.684Z,102482.19
2022-12-03T01:27:17.114Z,102478.16
2022-12-03T01:27:48.505Z,102481.38
2022-12-03T01:28:19.887Z,102481.13
2022-12-03T01:28:52.466Z,102471.19
2022-12-03T01:29:24.581Z,102475.22
2022-12-03T01:29:56.076Z,102481.66
2022-12-03T01:30:27.435Z,102478.97
2022-12-03T01:31:17.137Z,102475.47
2022-12-03T01:32:07.723Z,102488.63
2022-12-03T01:32:39.054Z,102480.56
2022-12-03T01:33:10.356Z,102469.50
2022-12-03T01:33:41.656Z,102476.28
2022-12-03T01:34:13.139Z,102477.88
2022-12-03T01:34:49.944Z,102473.84
2022-12-03T01:35:21.461Z,102478.97
2022-12-03T01:35:52.822Z,102478.97
2022-12-03T01:36:24.189Z,102476.81
2022-12-03T01:36:55.738Z,102482.72
2022-12-03T01:37:27.334Z,102476.28
2022-12-03T01:37:58.668Z,102482.19
2022-12-03T01:38:30.065Z,102482.19
2022-12-03T01:39:02.573Z,102483.81
2022-12-03T01:39:33.926Z,102475.47
2022-12-03T01:40:07.707Z,102482.72
2022-12-03T01:40:39.232Z,102485.16
2022-12-03T01:41:12.038Z,102472.53
2022-12-03T01:41:44.508Z,102478.69
2022-12-03T01:42:22.675Z,102485.41
2022-12-03T01:42:54.045Z,102484.63
2022-12-03T01:43:25.419Z,102487.03
2022-12-03T01:43:57.924Z,102476.81
2022-12-03T01:44:32.724Z,102480.59
2022-12-03T01:45:04.919Z,102479.22
2022-12-03T01:45:36.389Z,102477.63
2022-12-03T01:46:11.385Z,102479.78
2022-12-03T01:46:43.646Z,102474.94
2022-12-03T01:47:19.492Z,102479.22
2022-12-03T01:47:50.991Z,102475.75
2022-12-03T01:48:22.455Z,102476.53
2022-12-03T01:48:55.799Z,102482.47
2022-12-03T01:49:40.899Z,102486.75
2022-12-03T01:50:20.903Z,102480.56
2022-12-03T01:50:52.403Z,102482.72
2022-12-03T01:51:23.812Z,102481.13
2022-12-03T01:51:56.331Z,102471.44
2022-12-03T01:52:32.188Z,102482.19
2022-12-03T01:53:04.926Z,102482.19
2022-12-03T01:53:36.303Z,102480.25
2022-12-03T01:54:16.560Z,102484.56
2022-12-03T01:54:58.193Z,102482.69
2022-12-03T01:55:30.103Z,102478.91
2022-12-03T01:56:01.700Z,102481.59
2022-12-03T01:56:33.150Z,102481.06
2022-12-03T01:57:05.499Z,102476.22
2022-12-03T01:57:43.491Z,102477.56
2022-12-03T01:58:15.740Z,102478.09
2022-12-03T01:58:47.608Z,102484.03
2022-12-03T01:59:21.659Z,102484.81
2022-12-03T02:00:12.706Z,102477.31
2022-12-03T02:00:44.037Z,102477.03
2022-12-03T02:01:18.957Z,102482.94
2022-12-03T02:01:50.553Z,102480.53
2022-12-03T02:02:28.135Z,102481.06
2022-12-03T02:03:08.331Z,102483.75
2022-12-03T02:03:40.153Z,102484.56
2022-12-03T02:04:14.125Z,102482.94
2022-12-03T02:04:45.577Z,102479.44
2022-12-03T02:05:26.140Z,102479.97
2022-12-03T02:05:57.708Z,102474.34
2022-12-03T02:06:30.251Z,102481.88
2022-12-03T02:07:23.175Z,102481.88
2022-12-03T02:07:55.458Z,102477.56
2022-12-03T02:08:37.470Z,102483.75
2022-12-03T02:09:13.096Z,102482.94
2022-12-03T02:09:44.598Z,102482.94
2022-12-03T02:10:18.582Z,102477.56
2022-12-03T02:10:49.935Z,102474.34
2022-12-03T02:11:34.079Z,102480.53
2022-12-03T02:12:05.907Z,102480.53
2022-12-03T02:12:43.133Z,102477.31
2022-12-03T02:13:14.643Z,102476.50
2022-12-03T02:13:47.704Z,102480.81
2022-12-03T02:14:21.712Z,102471.94
2022-12-03T02:14:53.800Z,102468.75
2022-12-03T02:15:25.698Z,102478.91
2022-12-03T02:15:58.269Z,102477.03
2022-12-03T02:16:30.583Z,102478.63
2022-12-03T02:17:01.999Z,102473.00
2022-12-03T02:17:33.503Z,102469.25
2022-12-03T02:18:05.580Z,102468.16
2022-12-03T02:18:37.052Z,102470.84
2022-12-03T02:19:24.144Z,102472.72
2022-12-03T02:19:56.227Z,102472.47
2022-12-03T02:20:27.735Z,102468.69
2022-12-03T02:21:17.026Z,102474.59
2022-12-03T02:21:59.222Z,102474.06
2022-12-03T02:22:48.961Z,102471.09
2022-12-03T02:23:35.961Z,102478.63
2022-12-03T02:24:44.696Z,102477.56
2022-12-03T02:25:26.995Z,102469.78
2022-12-03T02:25:59.227Z,102469.78
2022-12-03T02:26:30.564Z,102468.97
2022-12-03T02:27:01.951Z,102473.25
2022-12-03T02:27:33.397Z,102475.16
2022-12-03T02:28:07.872Z,102467.63
2022-12-03T02:28:39.559Z,102471.66
2022-12-03T02:29:11.436Z,102467.34
2022-12-03T02:29:42.860Z,102468.41
2022-12-03T02:30:18.055Z,102474.31
2022-12-03T02:30:49.384Z,102468.16
2022-12-03T02:31:20.919Z,102474.84
2022-12-03T02:31:52.531Z,102470.84
2022-12-03T02:32:24.110Z,102466.00
2022-12-03T02:32:55.971Z,102472.44
2022-12-03T02:33:27.358Z,102467.06
2022-12-03T02:33:58.727Z,102467.63
2022-12-03T02:34:41.800Z,102467.63
2022-12-03T02:35:34.766Z,102466.81
2022-12-03T02:36:06.359Z,102467.63
2022-12-03T02:36:39.148Z,102463.31
2022-12-03T02:37:18.677Z,102459.53
2022-12-03T02:37:54.724Z,102466.53
2022-12-03T02:38:27.932Z,102469.22
2022-12-03T02:38:59.518Z,102466.25
2022-12-03T02:39:32.688Z,102461.72
2022-12-03T02:40:09.548Z,102466.25
2022-12-03T02:40:42.107Z,102468.69
2022-12-03T02:41:36.332Z,102462.75
2022-12-03T02:42:26.606Z,102469.75
2022-12-03T02:43:01.112Z,102469.47
2022-12-03T02:43:32.699Z,102473.25
2022-12-03T02:44:06.743Z,102472.44
2022-12-03T02:44:38.265Z,102465.47
2022-12-03T02:45:15.018Z,102468.16
2022-12-03T02:45:49.899Z,102466.53
2022-12-03T02:46:21.343Z,102471.09
2022-12-03T02:46:52.793Z,102465.72
2022-12-03T02:47:24.238Z,102463.03
2022-12-03T02:48:01.662Z,102462.22
2022-12-03T02:48:35.658Z,102468.41
2022-12-03T02:49:07.704Z,102460.63
2022-12-03T02:49:39.382Z,102460.63
2022-12-03T02:50:13.671Z,102460.63
2022-12-03T02:50:50.537Z,102459.00
2022-12-03T02:51:22.150Z,102463.59
2022-12-03T02:51:53.653Z,102456.59
2022-12-03T02:52:25.581Z,102463.03
2022-12-03T02:53:01.091Z,102457.94
2022-12-03T02:53:44.322Z,102463.03
2022-12-03T02:54:15.717Z,102458.47
2022-12-03T02:54:47.756Z,102459.53
2022-12-03T02:55:19.703Z,102465.47
2022-12-03T02:55:53.182Z,102455.50
2022-12-03T02:56:29.575Z,102455.50
2022-12-03T02:57:01.162Z,102466.00
2022-12-03T02:57:34.512Z,102456.84
2022-12-03T02:58:06.584Z,102459.00
2022-12-03T02:58:38.689Z,102461.69
2022-12-03T02:59:10.204Z,102462.50
2022-12-03T02:59:41.811Z,102452.00
2022-12-03T03:00:14.121Z,102456.03
2022-12-03T03:00:46.460Z,102458.19
2022-12-03T03:01:36.125Z,102463.81
2022-12-03T03:02:07.714Z,102454.44
2022-12-03T03:02:41.393Z,102457.66
2022-12-03T03:03:13.376Z,102461.94
2022-12-03T03:03:46.683Z,102457.38
2022-12-03T03:04:18.119Z,102456.56
2022-12-03T03:04:49.555Z,102456.56
2022-12-03T03:05:23.289Z,102454.16
2022-12-03T03:05:56.732Z,102453.34
2022-12-03T03:06:28.399Z,102454.44
2022-12-03T03:06:59.879Z,102459.53
2022-12-03T03:07:31.397Z,102451.47
2022-12-03T03:08:03.592Z,102454.16
2022-12-03T03:08:37.803Z,102454.16
2022-12-03T03:09:09.396Z,102450.38
2022-12-03T03:09:41.171Z,102446.34
2022-12-03T03:10:15.124Z,102448.78
2022-12-03T03:10:47.429Z,102449.31
2022-12-03T03:11:18.963Z,102445.81
2022-12-03T03:11:50.376Z,102448.78
2022-12-03T03:12:21.744Z,102441.50
2022-12-03T03:12:54.996Z,102451.19
2022-12-03T03:13:26.656Z,102447.16
2022-12-03T03:13:58.395Z,102449.84
2022-12-03T03:14:29.756Z,102449.31
2022-12-03T03:15:01.357Z,102449.03
2022-12-03T03:15:32.896Z,102437.75
2022-12-03T03:16:06.470Z,102446.34
2022-12-03T03:16:38.122Z,102442.31
2022-12-03T03:17:09.574Z,102452.78
2022-12-03T03:17:42.288Z,102445.81
2022-12-03T03:18:15.252Z,102440.97
2022-12-03T03:18:46.688Z,102452.78
2022-12-03T03:19:18.057Z,102441.22
2022-12-03T03:19:49.596Z,102450.91
2022-12-03T03:20:21.105Z,102455.22
2022-12-03T03:20:53.065Z,102439.88
2022-12-03T03:21:24.536Z,102442.56
2022-12-03T03:21:56.376Z,102452.53
2022-12-03T03:22:35.706Z,102457.91
2022-12-03T03:23:14.278Z,102453.59
2022-12-03T03:23:45.691Z,102450.91
2022-12-03T03:24:17.236Z,102442.31
2022-12-03T03:24:48.641Z,102443.41
2022-12-03T03:25:24.871Z,102444.72
2022-12-03T03:25:58.152Z,102441.75
2022-12-03T03:26:29.571Z,102443.38
2022-12-03T03:27:00.950Z,102436.91
2022-12-03T03:27:33.139Z,102431.53
2022-12-03T03:28:05.287Z,102439.34
2022-12-03T03:28:40.169Z,102432.91
2022-12-03T03:29:11.934Z,102441.72
2022-12-03T03:29:43.317Z,102431.53
2022-12-03T03:30:14.918Z,102437.94
2022-12-03T03:30:47.231Z,102435.53
2022-12-03T03:31:22.997Z,102430.19
2022-12-03T03:31:54.799Z,102437.13
2022-12-03T03:32:28.230Z,102442.81
2022-12-03T03:32:59.726Z,102436.34
2022-12-03T03:33:50.038Z,102435.53
2022-12-03T03:34:21.595Z,102436.91
2022-12-03T03:34:53.285Z,102433.69
2022-12-03T03:35:25.536Z,102436.38
2022-12-03T03:35:57.132Z,102433.69
2022-12-03T03:36:28.963Z,102435.59
2022-12-03T03:37:00.389Z,102439.06
2022-12-03T03:37:31.898Z,102427.50
2022-12-03T03:38:04.383Z,102434.50
2022-12-03T03:38:36.889Z,102432.91
2022-12-03T03:39:09.990Z,102434.22
2022-12-03T03:39:41.382Z,102428.56
2022-12-03T03:40:12.937Z,102432.06
2022-12-03T03:40:44.677Z,102435.84
2022-12-03T03:41:16.650Z,102428.03
2022-12-03T03:41:48.154Z,102433.41
2022-12-03T03:42:19.707Z,102425.09
2022-12-03T03:42:51.686Z,102419.69
2022-12-03T03:43:24.270Z,102428.03
2022-12-03T03:43:56.098Z,102426.69
2022-12-03T03:44:28.444Z,102427.19
2022-12-03T03:45:00.210Z,102429.38
2022-12-03T03:45:31.708Z,102422.09
2022-12-03T03:46:07.390Z,102426.16
2022-12-03T03:46:39.848Z,102422.38
2022-12-03T03:47:12.259Z,102423.75
2022-12-03T03:47:44.083Z,102423.19
2022-12-03T03:48:15.652Z,102426.16
2022-12-03T03:48:48.482Z,102420.78
2022-12-03T03:49:20.303Z,102428.56
2022-12-03T03:49:52.931Z,102427.78
2022-12-03T03:50:25.667Z,102426.97
2022-12-03T03:50:57.498Z,102425.34
2022-12-03T03:51:29.172Z,102432.06
2022-12-03T03:52:00.761Z,102425.09
2022-12-03T03:52:32.464Z,102423.19
2022-12-03T03:53:05.067Z,102428.78
2022-12-03T03:53:41.735Z,102419.66
2022-12-03T03:54:13.846Z,102426.63
2022-12-03T03:54:46.129Z,102423.41
2022-12-03T03:55:19.056Z,102421.53
2022-12-03T03:55:51.171Z,102426.09
2022-12-03T03:56:24.099Z,102428.00
2022-12-03T03:56:55.480Z,102423.41
2022-12-03T03:57:26.927Z,102415.94
2022-12-03T03:57:58.642Z,102423.94
2022-12-03T03:58:30.061Z,102420.72
2022-12-03T03:59:02.436Z,102430.94
2022-12-03T03:59:33.791Z,102417.22
2022-12-03T04:00:08.115Z,102417.47
2022-12-03T04:00:39.559Z,102423.94
2022-12-03T04:01:13.254Z,102422.34
2022-12-03T04:01:46.037Z,102416.44
2022-12-03T04:02:20.142Z,102423.41
2022-12-03T04:02:52.547Z,102418.84
2022-12-03T04:03:23.925Z,102423.41
2022-12-03T04:03:55.962Z,102425.31
2022-12-03T04:04:33.421Z,102414.81
2022-12-03T04:05:05.275Z,102422.34
2022-12-03T04:05:36.638Z,102419.66
2022-12-03T04:06:09.430Z,102417.75
2022-12-03T04:06:40.746Z,102414.31
2022-12-03T04:07:12.183Z,102423.94
2022-12-03T04:07:43.664Z,102425.28
2022-12-03T04:08:15.133Z,102423.38
2022-12-03T04:08:46.544Z,102422.59
2022-12-03T04:09:17.943Z,102418.81
2022-12-03T04:09:49.367Z,102409.41
2022-12-03T04:10:39.132Z,102415.84
2022-12-03T04:11:28.997Z,102409.13
2022-12-03T04:12:18.926Z,102413.97
2022-12-03T04:12:56.344Z,102416.94
2022-12-03T04:13:27.665Z,102415.84
2022-12-03T04:13:58.971Z,102415.84
2022-12-03T04:14:30.328Z,102409.94
2022-12-03T04:15:02.018Z,102416.94
2022-12-03T04:15:33.468Z,102416.13
2022-12-03T04:16:04.997Z,102411.56
2022-12-03T04:16:36.397Z,102400.28
2022-12-03T04:17:07.729Z,102416.41
2022-12-03T04:17:39.097Z,102404.88
2022-12-03T04:18:28.917Z,102404.31
2022-12-03T04:19:00.279Z,102416.41
2022-12-03T04:19:31.640Z,102419.91
2022-12-03T04:20:03.482Z,102417.22
2022-12-03T04:20:35.035Z,102409.13
2022-12-03T04:21:24.966Z,102416.94
2022-12-03T04:22:15.058Z,102414.25
2022-12-03T04:22:46.469Z,102411.28
2022-12-03T04:23:17.822Z,102409.66
2022-12-03T04:23:49.193Z,102409.38
2022-12-03T04:24:20.539Z,102404.81
2022-12-03T04:24:52.192Z,102408.03
2022-12-03T04:25:42.401Z,102402.94
2022-12-03T04:26:32.414Z,102411.81
2022-12-03T04:27:22.294Z,102406.41
2022-12-03T04:28:12.474Z,102404.81
2022-12-03T04:28:49.533Z,102405.63
2022-12-03T04:29:21.855Z,102410.19
2022-12-03T04:29:53.254Z,102408.06
2022-12-03T04:30:24.770Z,102408.34
2022-12-03T04:30:56.145Z,102406.72
2022-12-03T04:31:46.566Z,102404.84
2022-12-03T04:32:36.667Z,102411.03
2022-12-03T04:33:45.614Z,102404.03
2022-12-03T04:34:36.707Z,102406.72
2022-12-03T04:35:28.270Z,102406.72
2022-12-03T04:35:59.666Z,102417.47
2022-12-03T04:36:31.146Z,102398.94
2022-12-03T04:37:03.033Z,102402.72
2022-12-03T04:37:34.393Z,102404.31
2022-12-03T04:38:05.741Z,102399.22
2022-12-03T04:38:37.085Z,102393.84
2022-12-03T04:39:08.441Z,102395.97
2022-12-03T04:39:39.923Z,102400.81
2022-12-03T04:40:30.232Z,102396.53
2022-12-03T04:41:01.995Z,102405.38
2022-12-03T04:41:33.363Z,102400.25
2022-12-03T04:42:06.107Z,102394.09
2022-12-03T04:42:37.450Z,102401.06
2022-12-03T04:43:08.854Z,102399.75
2022-12-03T04:44:00.179Z,102394.88
2022-12-03T04:44:36.364Z,102402.44
2022-12-03T04:45:08.307Z,102401.06
2022-12-03T04:45:39.648Z,102403.75
2022-12-03T04:46:11.060Z,102395.97
2022-12-03T04:46:42.477Z,102398.94
2022-12-03T04:47:15.060Z,102402.97
2022-12-03T04:47:46.384Z,102392.22
2022-12-03T04:48:17.737Z,102394.34
2022-12-03T04:48:49.200Z,102387.38
2022-12-03T04:49:20.591Z,102405.13
2022-12-03T04:49:52.063Z,102390.34
2022-12-03T04:50:23.474Z,102395.41
2022-12-03T04:50:54.868Z,102379.31
2022-12-03T04:51:26.208Z,102388.16
2022-12-03T04:51:57.837Z,102398.63
2022-12-03T04:52:29.227Z,102388.44
2022-12-03T04:53:00.625Z,102394.34
2022-12-03T04:53:50.549Z,102393.53
2022-12-03T04:54:21.961Z,102392.44
2022-12-03T04:54:53.569Z,102388.94
2022-12-03T04:55:25.054Z,102393.25
2022-12-03T04:55:56.417Z,102385.47
2022-12-03T04:56:27.798Z,102396.75
2022-12-03T04:56:59.235Z,102389.47
2022-12-03T04:57:30.672Z,102394.06
2022-12-03T04:58:02.053Z,102392.16
2022-12-03T04:58:33.378Z,102394.84
2022-12-03T04:59:04.738Z,102402.13
2022-12-03T04:59:36.718Z,102404.81
2022-12-03T05:00:08.696Z,102402.94
2022-12-03T05:00:40.083Z,102400.50
2022-12-03T05:01:11.466Z,102393.25
2022-12-03T05:01:43.050Z,102400.50
2022-12-03T05:02:14.519Z,102397.56
2022-12-03T05:02:45.937Z,102394.84
2022-12-03T05:03:17.392Z,102400.25
2022-12-03T05:03:48.853Z,102392.72
2022-12-03T05:04:20.195Z,102397.03
2022-12-03T05:04:51.685Z,102394.84
2022-12-03T05:05:23.306Z,102390.84
2022-12-03T05:05:54.646Z,102403.22
2022-12-03T05:06:25.993Z,102400.25
2022-12-03T05:06:57.780Z,102390.31
2022-12-03T05:07:29.203Z,102389.75
2022-12-03T05:08:00.669Z,102396.22
2022-12-03T05:08:32.226Z,102397.31
2022-12-03T05:09:04.009Z,102394.34
2022-12-03T05:09:35.374Z,102394.09
2022-12-03T05:10:07.602Z,102391.91
2022-12-03T05:10:38.915Z,102392.19
2022-12-03T05:11:10.279Z,102395.13
2022-12-03T05:11:42.119Z,102403.47
2022-12-03T05:12:13.492Z,102397.03
2022-12-03T05:12:45.021Z,102399.19
2022-12-03T05:13:16.322Z,102398.09
2022-12-03T05:13:47.880Z,102400.00
2022-12-03T05:14:19.210Z,102399.44
2022-12-03T05:14:50.660Z,102399.72
2022-12-03T05:15:22.154Z,102404.00
2022-12-03T05:15:53.678Z,102404.28
2022-12-03T05:16:25.228Z,102393.25
2022-12-03T05:16:56.720Z,102401.31
2022-12-03T05:17:28.070Z,102400.25
2022-12-03T05:17:59.427Z,102397.28
2022-12-03T05:18:30.799Z,102389.47
2022-12-03T05:19:02.395Z,102398.88
2022-12-03T05:19:52.300Z,102391.88
2022-12-03T05:20:41.833Z,102395.09
2022-12-03T05:22:01.998Z,102387.56
2022-12-03T05:22:33.337Z,102392.94
2022-12-03T05:23:05.371Z,102394.56
2022-12-03T05:23:36.669Z,102394.56
2022-12-03T05:24:08.255Z,102390.75
2022-12-03T05:24:39.642Z,102392.13
2022-12-03T05:25:11.089Z,102389.97
2022-12-03T05:25:42.639Z,102386.75
2022-12-03T05:26:14.144Z,102392.34
2022-12-03T05:26:45.507Z,102386.47
2022-12-03T05:27:23.146Z,102391.56
2022-12-03T05:27:54.950Z,102387.78
2022-12-03T05:28:26.579Z,102386.69
2022-12-03T05:28:57.967Z,102391.00
2022-12-03T05:29:29.305Z,102394.50
2022-12-03T05:30:00.876Z,102384.28
2022-12-03T05:30:33.002Z,102392.59
2022-12-03T05:31:05.129Z,102387.50
2022-12-03T05:31:36.627Z,102380.78
2022-12-03T05:32:08.047Z,102383.47
2022-12-03T05:32:39.594Z,102386.16
2022-12-03T05:33:10.993Z,102379.72
2022-12-03T05:33:44.408Z,102386.97
2022-12-03T05:34:15.978Z,102392.66
2022-12-03T05:34:47.441Z,102381.09
2022-12-03T05:35:18.959Z,102385.69
2022-12-03T05:35:50.642Z,102386.75
2022-12-03T05:36:22.028Z,102386.50
2022-12-03T05:36:53.409Z,102384.09
2022-12-03T05:37:24.791Z,102385.72
2022-12-03T05:37:56.561Z,102385.72
2022-12-03T05:38:27.962Z,102387.06
2022-12-03T05:38:59.264Z,102385.72
2022-12-03T05:39:30.619Z,102376.88
2022-12-03T05:40:01.997Z,102388.69
2022-12-03T05:40:33.515Z,102387.06
2022-12-03T05:41:28.243Z,102386.53
2022-12-03T05:42:22.733Z,102388.69
2022-12-03T05:42:54.102Z,102392.75
2022-12-03T05:43:25.534Z,102385.75
2022-12-03T05:43:56.915Z,102394.09
2022-12-03T05:44:28.232Z,102393.31
2022-12-03T05:44:59.645Z,102385.81
2022-12-03T05:45:36.766Z,102380.72
2022-12-03T05:46:08.318Z,102388.72
2022-12-03T05:46:39.739Z,102394.91
2022-12-03T05:47:11.316Z,102386.34
2022-12-03T05:47:42.637Z,102389.53
2022-12-03T05:48:16.532Z,102388.44
2022-12-03T05:48:47.951Z,102382.00
2022-12-03T05:49:19.316Z,102379.31
2022-12-03T05:49:50.738Z,102375.88
2022-12-03T05:50:24.416Z,102386.03
2022-12-03T05:50:55.835Z,102380.16
2022-12-03T05:51:27.165Z,102382.84
2022-12-03T05:51:59.008Z,102376.69
2022-12-03T05:52:30.402Z,102371.28
2022-12-03T05:53:01.848Z,102371.03
2022-12-03T05:53:33.201Z,102375.63
2022-12-03T05:54:04.597Z,102379.13
2022-12-03T05:54:35.982Z,102367.31
2022-12-03T05:55:08.145Z,102370.53
2022-12-03T05:55:39.845Z,102381.53
2022-12-03T05:56:11.143Z,102365.13
2022-12-03T05:56:42.555Z,102373.19
2022-12-03T05:57:13.865Z,102377.75
2022-12-03T05:57:46.947Z,102365.91
2022-12-03T05:58:18.386Z,102373.47
2022-12-03T05:58:49.777Z,102361.09
2022-12-03T05:59:21.329Z,102365.13
2022-12-03T05:59:52.652Z,102357.34
2022-12-03T06:00:30.326Z,102374.53
2022-12-03T06:01:01.788Z,102371.31
2022-12-03T06:01:33.109Z,102359.22
2022-12-03T06:02:04.741Z,102361.66
2022-12-03T06:02:36.296Z,102364.34
2022-12-03T06:03:07.956Z,102371.59
2022-12-03T06:03:39.548Z,102361.41
2022-12-03T06:04:29.273Z,102376.97
2022-12-03T06:05:00.812Z,102372.41
2022-12-03T06:05:33.383Z,102372.41
2022-12-03T06:06:04.969Z,102369.72
2022-12-03T06:06:36.391Z,102365.13
2022-12-03T06:07:12.540Z,102370.00
2022-12-03T06:07:46.378Z,102364.06
2022-12-03T06:08:17.816Z,102364.34
2022-12-03T06:08:49.172Z,102370.53
2022-12-03T06:09:20.565Z,102362.97
2022-12-03T06:09:52.013Z,102366.22
2022-12-03T06:10:25.271Z,102367.28
2022-12-03T06:10:56.623Z,102362.16
2022-12-03T06:11:46.690Z,102369.69
2022-12-03T06:12:17.989Z,102363.22
2022-12-03T06:12:49.573Z,102365.91
2022-12-03T06:13:21.082Z,102357.31
2022-12-03T06:13:52.565Z,102364.03
2022-12-03T06:14:23.986Z,102357.03
2022-12-03T06:14:55.696Z,102357.84
2022-12-03T06:15:27.283Z,102360.81
2022-12-03T06:15:58.853Z,102360.81
2022-12-03T06:16:30.279Z,102358.69
2022-12-03T06:17:02.365Z,102359.72
2022-12-03T06:17:33.862Z,102355.97
2022-12-03T06:18:05.331Z,102349.25
2022-12-03T06:18:36.744Z,102352.47
2022-12-03T06:19:08.076Z,102352.97
2022-12-03T06:19:39.447Z,102353.28
2022-12-03T06:20:14.377Z,102363.72
2022-12-03T06:20:45.709Z,102346.56
2022-12-03T06:21:17.151Z,102345.75
2022-12-03T06:21:48.532Z,102347.13
2022-12-03T06:22:19.893Z,102338.53
2022-12-03T06:22:51.285Z,102343.63
2022-12-03T06:23:22.665Z,102332.63